sensor_id;sensor_type;location;lat;lon;timestamp;P1;durP1;ratioP1;P2;durP2;ratioP2
10166;SDS011;62970;53.130;8.244;2023-10-09T06:18:04;11.83;;;9.27;;
10166;SDS011;62970;53.130;8.244;2023-10-09T11:48:20;2.80;;;2.17;;
10166;SDS011;62970;53.130;8.244;2023-10-09T11:50:58;2.60;;;2.30;;
10166;SDS011;62970;53.130;8.244;2023-10-09T11:53:44;2.50;;;2.10;;
10166;SDS011;62970;53.130;8.244;2023-10-09T11:56:14;4.50;;;2.50;;
10166;SDS011;62970;53.130;8.244;2023-10-09T11:58:46;3.17;;;2.30;;
10166;SDS011;62970;53.130;8.244;2023-10-09T12:01:16;2.87;;;2.30;;
10166;SDS011;62970;53.130;8.244;2023-10-09T12:03:50;2.33;;;2.10;;
10166;SDS011;62970;53.130;8.244;2023-10-09T12:06:20;3.10;;;2.33;;
10166;SDS011;62970;53.130;8.244;2023-10-09T12:08:57;2.40;;;2.03;;
10166;SDS011;62970;53.130;8.244;2023-10-09T12:11:30;2.07;;;1.87;;
10166;SDS011;62970;53.130;8.244;2023-10-09T12:14:00;3.10;;;2.00;;
10166;SDS011;62970;53.130;8.244;2023-10-09T12:16:29;2.17;;;1.90;;
10166;SDS011;62970;53.130;8.244;2023-10-09T12:19:01;2.93;;;2.00;;
10166;SDS011;62970;53.130;8.244;2023-10-09T12:21:34;3.63;;;2.30;;
10166;SDS011;62970;53.130;8.244;2023-10-09T12:24:08;4.50;;;2.40;;
10166;SDS011;62970;53.130;8.244;2023-10-09T12:26:37;3.33;;;1.90;;
10166;SDS011;62970;53.130;8.244;2023-10-09T12:29:07;2.77;;;2.20;;
10166;SDS011;62970;53.130;8.244;2023-10-09T12:31:37;3.23;;;2.00;;
10166;SDS011;62970;53.130;8.244;2023-10-09T12:34:13;4.40;;;2.33;;
10166;SDS011;62970;53.130;8.244;2023-10-09T12:36:44;3.30;;;2.17;;
10166;SDS011;62970;53.130;8.244;2023-10-09T12:39:14;3.80;;;2.27;;
10166;SDS011;62970;53.130;8.244;2023-10-09T12:41:45;5.07;;;2.37;;
10166;SDS011;62970;53.130;8.244;2023-10-09T12:44:18;4.17;;;2.33;;
10166;SDS011;62970;53.130;8.244;2023-10-09T12:46:52;3.83;;;2.27;;
10166;SDS011;62970;53.130;8.244;2023-10-09T12:49:24;5.00;;;2.60;;
10166;SDS011;62970;53.130;8.244;2023-10-09T12:51:53;3.53;;;2.10;;
10166;SDS011;62970;53.130;8.244;2023-10-09T12:54:24;4.47;;;2.43;;
10166;SDS011;62970;53.130;8.244;2023-10-09T12:56:56;4.43;;;2.80;;
10166;SDS011;62970;53.130;8.244;2023-10-09T12:59:26;4.40;;;2.50;;
10166;SDS011;62970;53.130;8.244;2023-10-09T13:01:55;5.00;;;2.50;;
10166;SDS011;62970;53.130;8.244;2023-10-09T13:04:29;5.03;;;2.47;;
10166;SDS011;62970;53.130;8.244;2023-10-09T13:07:00;6.47;;;2.60;;
10166;SDS011;62970;53.130;8.244;2023-10-09T13:09:32;6.27;;;3.00;;
10166;SDS011;62970;53.130;8.244;2023-10-09T13:12:07;4.40;;;2.60;;
10166;SDS011;62970;53.130;8.244;2023-10-09T13:14:43;7.33;;;2.80;;
10166;SDS011;62970;53.130;8.244;2023-10-09T13:17:14;5.07;;;2.57;;
10166;SDS011;62970;53.130;8.244;2023-10-09T13:19:48;6.20;;;2.57;;
10166;SDS011;62970;53.130;8.244;2023-10-09T13:22:17;7.50;;;3.00;;
10166;SDS011;62970;53.130;8.244;2023-10-09T13:24:48;7.23;;;3.17;;
10166;SDS011;62970;53.130;8.244;2023-10-09T13:27:28;5.17;;;2.30;;
10166;SDS011;62970;53.130;8.244;2023-10-09T13:29:59;6.60;;;2.63;;
10166;SDS011;62970;53.130;8.244;2023-10-09T13:32:33;5.33;;;2.40;;
10166;SDS011;62970;53.130;8.244;2023-10-09T13:35:05;4.80;;;2.53;;
10166;SDS011;62970;53.130;8.244;2023-10-09T13:37:39;4.50;;;2.30;;
10166;SDS011;62970;53.130;8.244;2023-10-09T13:40:22;3.33;;;2.10;;
10166;SDS011;62970;53.130;8.244;2023-10-09T13:42:55;5.03;;;2.20;;
10166;SDS011;62970;53.130;8.244;2023-10-09T13:50:35;4.77;;;2.30;;
10166;SDS011;62970;53.130;8.244;2023-10-09T13:53:08;5.77;;;2.30;;
10166;SDS011;62970;53.130;8.244;2023-10-09T13:55:41;3.10;;;2.33;;
10166;SDS011;62970;53.130;8.244;2023-10-09T13:58:12;2.83;;;1.80;;
10166;SDS011;62970;53.130;8.244;2023-10-09T14:01:01;4.00;;;2.37;;
10166;SDS011;62970;53.130;8.244;2023-10-09T14:03:34;6.13;;;2.30;;
10166;SDS011;62970;53.130;8.244;2023-10-09T14:06:06;4.53;;;2.20;;
10166;SDS011;62970;53.130;8.244;2023-10-09T14:08:39;4.10;;;2.67;;
10166;SDS011;62970;53.130;8.244;2023-10-09T14:11:10;3.33;;;2.20;;
10166;SDS011;62970;53.130;8.244;2023-10-09T14:13:39;4.73;;;2.50;;
10166;SDS011;62970;53.130;8.244;2023-10-09T14:16:13;3.53;;;2.30;;
10166;SDS011;62970;53.130;8.244;2023-10-09T14:21:41;4.93;;;2.30;;
10166;SDS011;62970;53.130;8.244;2023-10-09T14:24:14;6.10;;;2.53;;
10166;SDS011;62970;53.130;8.244;2023-10-09T14:26:44;5.40;;;2.20;;
10166;SDS011;62970;53.130;8.244;2023-10-09T14:29:17;5.53;;;2.00;;
10166;SDS011;62970;53.130;8.244;2023-10-09T14:31:46;6.03;;;2.17;;
10166;SDS011;62970;53.130;8.244;2023-10-09T14:34:26;4.60;;;2.53;;
10166;SDS011;62970;53.130;8.244;2023-10-09T14:37:04;3.93;;;2.13;;
10166;SDS011;62970;53.130;8.244;2023-10-09T14:39:44;4.87;;;2.37;;
10166;SDS011;62970;53.130;8.244;2023-10-09T14:42:14;3.00;;;2.03;;
10166;SDS011;62970;53.130;8.244;2023-10-09T14:44:52;5.90;;;2.30;;
10166;SDS011;62970;53.130;8.244;2023-10-09T14:47:23;6.93;;;2.53;;
10166;SDS011;62970;53.130;8.244;2023-10-09T14:49:52;5.27;;;2.10;;
10166;SDS011;62970;53.130;8.244;2023-10-09T14:52:35;4.50;;;2.17;;
10166;SDS011;62970;53.130;8.244;2023-10-09T14:55:07;3.33;;;2.00;;
10166;SDS011;62970;53.130;8.244;2023-10-09T14:57:38;4.53;;;1.90;;
10166;SDS011;62970;53.130;8.244;2023-10-09T15:00:08;7.43;;;2.10;;
10166;SDS011;62970;53.130;8.244;2023-10-09T15:02:41;4.93;;;2.23;;
10166;SDS011;62970;53.130;8.244;2023-10-09T15:05:12;4.83;;;2.00;;
10166;SDS011;62970;53.130;8.244;2023-10-09T15:07:44;5.87;;;2.20;;
10166;SDS011;62970;53.130;8.244;2023-10-09T15:10:15;3.83;;;1.87;;
10166;SDS011;62970;53.130;8.244;2023-10-09T15:12:49;3.37;;;1.70;;
10166;SDS011;62970;53.130;8.244;2023-10-09T15:15:18;4.80;;;1.70;;
10166;SDS011;62970;53.130;8.244;2023-10-09T15:17:50;5.63;;;1.80;;
10166;SDS011;62970;53.130;8.244;2023-10-09T15:20:20;4.60;;;2.10;;
10166;SDS011;62970;53.130;8.244;2023-10-09T15:22:52;5.77;;;2.03;;
10166;SDS011;62970;53.130;8.244;2023-10-09T15:25:22;3.03;;;1.63;;
10166;SDS011;62970;53.130;8.244;2023-10-09T15:27:53;3.33;;;1.60;;
10166;SDS011;62970;53.130;8.244;2023-10-09T15:30:23;2.07;;;1.60;;
10166;SDS011;62970;53.130;8.244;2023-10-09T15:32:54;3.50;;;1.80;;
10166;SDS011;62970;53.130;8.244;2023-10-09T15:35:23;4.07;;;1.80;;
10166;SDS011;62970;53.130;8.244;2023-10-09T15:37:57;2.57;;;1.60;;
10166;SDS011;62970;53.130;8.244;2023-10-09T15:40:28;3.73;;;1.73;;
10166;SDS011;62970;53.130;8.244;2023-10-09T15:42:59;3.60;;;1.47;;
10166;SDS011;62970;53.130;8.244;2023-10-09T15:45:30;7.47;;;2.03;;
10166;SDS011;62970;53.130;8.244;2023-10-09T15:48:03;3.00;;;2.07;;
10166;SDS011;62970;53.130;8.244;2023-10-09T15:50:33;4.17;;;2.07;;
10166;SDS011;62970;53.130;8.244;2023-10-09T15:53:05;3.57;;;1.70;;
10166;SDS011;62970;53.130;8.244;2023-10-09T15:55:35;2.97;;;1.43;;
10166;SDS011;62970;53.130;8.244;2023-10-09T15:58:04;5.30;;;1.60;;
10166;SDS011;62970;53.130;8.244;2023-10-09T16:00:34;5.43;;;2.93;;
10166;SDS011;62970;53.130;8.244;2023-10-09T16:03:04;6.07;;;2.20;;
10166;SDS011;62970;53.130;8.244;2023-10-09T16:05:35;3.70;;;1.70;;
10166;SDS011;62970;53.130;8.244;2023-10-09T16:08:08;2.77;;;1.53;;
10166;SDS011;62970;53.130;8.244;2023-10-09T16:10:38;6.20;;;1.47;;
10166;SDS011;62970;53.130;8.244;2023-10-09T16:13:08;3.97;;;1.53;;
10166;SDS011;62970;53.130;8.244;2023-10-09T16:15:40;3.20;;;1.40;;
10166;SDS011;62970;53.130;8.244;2023-10-09T16:18:11;1.67;;;1.20;;
10166;SDS011;62970;53.130;8.244;2023-10-09T16:20:40;2.90;;;1.20;;
10166;SDS011;62970;53.130;8.244;2023-10-09T16:23:14;2.33;;;1.30;;
10166;SDS011;62970;53.130;8.244;2023-10-09T16:25:45;2.10;;;1.37;;
10166;SDS011;62970;53.130;8.244;2023-10-09T16:28:14;2.23;;;1.40;;
10166;SDS011;62970;53.130;8.244;2023-10-09T16:30:44;2.33;;;1.47;;
10166;SDS011;62970;53.130;8.244;2023-10-09T16:33:13;4.97;;;1.30;;
10166;SDS011;62970;53.130;8.244;2023-10-09T16:35:44;2.47;;;1.23;;
10166;SDS011;62970;53.130;8.244;2023-10-09T16:38:17;2.80;;;1.40;;
10166;SDS011;62970;53.130;8.244;2023-10-09T16:40:53;5.47;;;1.80;;
10166;SDS011;62970;53.130;8.244;2023-10-09T16:43:26;3.00;;;1.33;;
10166;SDS011;62970;53.130;8.244;2023-10-09T16:45:56;4.03;;;1.57;;
10166;SDS011;62970;53.130;8.244;2023-10-09T16:48:26;5.53;;;1.40;;
10166;SDS011;62970;53.130;8.244;2023-10-09T16:50:55;3.87;;;1.83;;
10166;SDS011;62970;53.130;8.244;2023-10-09T16:53:28;4.33;;;1.70;;
10166;SDS011;62970;53.130;8.244;2023-10-09T16:56:01;2.83;;;1.63;;
10166;SDS011;62970;53.130;8.244;2023-10-09T16:58:35;2.57;;;1.30;;
10166;SDS011;62970;53.130;8.244;2023-10-09T17:01:06;2.07;;;1.00;;
10166;SDS011;62970;53.130;8.244;2023-10-09T17:03:36;1.77;;;1.13;;
10166;SDS011;62970;53.130;8.244;2023-10-09T17:06:07;1.83;;;1.10;;
10166;SDS011;62970;53.130;8.244;2023-10-09T17:08:45;1.60;;;1.00;;
10166;SDS011;62970;53.130;8.244;2023-10-09T17:11:18;2.37;;;0.90;;
10166;SDS011;62970;53.130;8.244;2023-10-09T17:13:49;2.00;;;1.20;;
10166;SDS011;62970;53.130;8.244;2023-10-09T17:16:22;2.67;;;1.20;;
10166;SDS011;62970;53.130;8.244;2023-10-09T17:18:54;1.97;;;1.20;;
10166;SDS011;62970;53.130;8.244;2023-10-09T17:21:26;2.43;;;1.03;;
10166;SDS011;62970;53.130;8.244;2023-10-09T17:24:03;0.83;;;0.83;;
10166;SDS011;62970;53.130;8.244;2023-10-09T17:26:35;1.93;;;1.13;;
10166;SDS011;62970;53.130;8.244;2023-10-09T17:29:06;1.87;;;0.87;;
10166;SDS011;62970;53.130;8.244;2023-10-09T17:31:37;2.20;;;0.80;;
10166;SDS011;62970;53.130;8.244;2023-10-09T17:34:08;2.60;;;1.00;;
10166;SDS011;62970;53.130;8.244;2023-10-09T17:36:37;2.83;;;1.17;;
10166;SDS011;62970;53.130;8.244;2023-10-09T17:39:09;2.37;;;1.27;;
10166;SDS011;62970;53.130;8.244;2023-10-09T17:41:40;1.77;;;1.10;;
10166;SDS011;62970;53.130;8.244;2023-10-09T17:44:09;4.30;;;1.30;;
10166;SDS011;62970;53.130;8.244;2023-10-09T17:46:43;3.03;;;1.17;;
10166;SDS011;62970;53.130;8.244;2023-10-09T17:49:13;1.77;;;1.17;;
10166;SDS011;62970;53.130;8.244;2023-10-09T17:51:43;2.13;;;1.20;;
10166;SDS011;62970;53.130;8.244;2023-10-09T17:54:19;2.60;;;1.00;;
10166;SDS011;62970;53.130;8.244;2023-10-09T17:56:51;3.33;;;1.30;;
10166;SDS011;62970;53.130;8.244;2023-10-09T17:59:21;2.80;;;1.20;;
10166;SDS011;62970;53.130;8.244;2023-10-09T18:01:52;3.30;;;1.30;;
10166;SDS011;62970;53.130;8.244;2023-10-09T18:04:22;1.83;;;1.40;;
10166;SDS011;62970;53.130;8.244;2023-10-09T18:06:52;1.87;;;1.20;;
10166;SDS011;62970;53.130;8.244;2023-10-09T18:09:24;3.50;;;1.83;;
10166;SDS011;62970;53.130;8.244;2023-10-09T18:11:55;4.00;;;1.40;;
10166;SDS011;62970;53.130;8.244;2023-10-09T18:14:26;2.77;;;1.50;;
10166;SDS011;62970;53.130;8.244;2023-10-09T18:16:59;2.77;;;1.60;;
10166;SDS011;62970;53.130;8.244;2023-10-09T18:19:31;3.57;;;1.23;;
10166;SDS011;62970;53.130;8.244;2023-10-09T18:22:04;4.37;;;1.20;;
10166;SDS011;62970;53.130;8.244;2023-10-09T18:24:40;3.53;;;1.57;;
10166;SDS011;62970;53.130;8.244;2023-10-09T18:27:11;2.07;;;1.20;;
10166;SDS011;62970;53.130;8.244;2023-10-09T18:29:41;4.33;;;1.70;;
10166;SDS011;62970;53.130;8.244;2023-10-09T18:32:13;4.60;;;1.50;;
10166;SDS011;62970;53.130;8.244;2023-10-09T18:34:43;2.70;;;1.53;;
10166;SDS011;62970;53.130;8.244;2023-10-09T18:37:13;3.80;;;1.60;;
10166;SDS011;62970;53.130;8.244;2023-10-09T18:39:49;3.43;;;1.60;;
10166;SDS011;62970;53.130;8.244;2023-10-09T18:42:19;3.43;;;1.50;;
10166;SDS011;62970;53.130;8.244;2023-10-09T18:44:48;3.90;;;1.83;;
10166;SDS011;62970;53.130;8.244;2023-10-09T18:47:18;5.57;;;1.60;;
10166;SDS011;62970;53.130;8.244;2023-10-09T18:49:50;3.03;;;1.20;;
10166;SDS011;62970;53.130;8.244;2023-10-09T18:52:19;2.47;;;1.40;;
10166;SDS011;62970;53.130;8.244;2023-10-09T18:54:53;2.57;;;1.33;;
10166;SDS011;62970;53.130;8.244;2023-10-09T18:57:24;3.13;;;1.30;;
10166;SDS011;62970;53.130;8.244;2023-10-09T18:59:56;4.17;;;1.53;;
10166;SDS011;62970;53.130;8.244;2023-10-09T19:02:26;3.47;;;1.70;;
10166;SDS011;62970;53.130;8.244;2023-10-09T19:04:56;2.03;;;1.37;;
10166;SDS011;62970;53.130;8.244;2023-10-09T19:07:25;3.13;;;1.60;;
10166;SDS011;62970;53.130;8.244;2023-10-09T19:09:57;2.40;;;1.30;;
10166;SDS011;62970;53.130;8.244;2023-10-09T19:12:26;3.40;;;1.40;;
10166;SDS011;62970;53.130;8.244;2023-10-09T19:14:56;2.03;;;1.43;;
10166;SDS011;62970;53.130;8.244;2023-10-09T19:17:25;3.73;;;1.60;;
10166;SDS011;62970;53.130;8.244;2023-10-09T19:19:55;3.40;;;2.20;;
10166;SDS011;62970;53.130;8.244;2023-10-09T19:22:25;4.33;;;2.10;;
10166;SDS011;62970;53.130;8.244;2023-10-09T19:24:57;2.63;;;1.90;;
10166;SDS011;62970;53.130;8.244;2023-10-09T19:27:27;3.47;;;1.63;;
10166;SDS011;62970;53.130;8.244;2023-10-09T19:29:57;4.37;;;1.40;;
10166;SDS011;62970;53.130;8.244;2023-10-09T19:32:31;3.57;;;1.80;;
10166;SDS011;62970;53.130;8.244;2023-10-09T19:35:03;2.33;;;1.30;;
10166;SDS011;62970;53.130;8.244;2023-10-09T19:37:34;3.43;;;1.43;;
10166;SDS011;62970;53.130;8.244;2023-10-09T19:40:07;5.50;;;1.97;;
10166;SDS011;62970;53.130;8.244;2023-10-09T19:42:37;1.90;;;1.20;;
10166;SDS011;62970;53.130;8.244;2023-10-09T19:45:09;4.43;;;1.53;;
10166;SDS011;62970;53.130;8.244;2023-10-09T19:47:44;2.40;;;1.47;;
10166;SDS011;62970;53.130;8.244;2023-10-09T19:50:16;2.70;;;1.47;;
10166;SDS011;62970;53.130;8.244;2023-10-09T19:52:45;4.80;;;1.40;;
10166;SDS011;62970;53.130;8.244;2023-10-09T19:55:18;3.57;;;1.90;;
10166;SDS011;62970;53.130;8.244;2023-10-09T19:57:47;2.90;;;1.80;;
10166;SDS011;62970;53.130;8.244;2023-10-09T20:00:19;2.90;;;1.50;;
10166;SDS011;62970;53.130;8.244;2023-10-09T20:02:50;2.93;;;1.50;;
10166;SDS011;62970;53.130;8.244;2023-10-09T20:05:19;3.27;;;1.60;;
10166;SDS011;62970;53.130;8.244;2023-10-09T20:07:50;1.93;;;1.67;;
10166;SDS011;62970;53.130;8.244;2023-10-09T20:10:22;2.97;;;1.63;;
10166;SDS011;62970;53.130;8.244;2023-10-09T20:12:52;1.97;;;1.30;;
10166;SDS011;62970;53.130;8.244;2023-10-09T20:15:22;3.70;;;1.50;;
10166;SDS011;62970;53.130;8.244;2023-10-09T20:17:52;4.83;;;1.40;;
10166;SDS011;62970;53.130;8.244;2023-10-09T20:20:20;4.53;;;1.53;;
10166;SDS011;62970;53.130;8.244;2023-10-09T20:22:50;2.60;;;1.43;;
10166;SDS011;62970;53.130;8.244;2023-10-09T20:25:22;1.70;;;1.20;;
10166;SDS011;62970;53.130;8.244;2023-10-09T20:27:53;2.67;;;1.30;;
10166;SDS011;62970;53.130;8.244;2023-10-09T20:30:22;1.50;;;1.30;;
10166;SDS011;62970;53.130;8.244;2023-10-09T20:32:51;3.87;;;1.57;;
10166;SDS011;62970;53.130;8.244;2023-10-09T20:35:21;2.20;;;1.50;;
10166;SDS011;62970;53.130;8.244;2023-10-09T20:37:52;2.17;;;1.53;;
10166;SDS011;62970;53.130;8.244;2023-10-09T20:40:29;2.47;;;1.67;;
10166;SDS011;62970;53.130;8.244;2023-10-09T20:42:58;4.63;;;1.77;;
10166;SDS011;62970;53.130;8.244;2023-10-09T20:45:28;1.97;;;1.60;;
10166;SDS011;62970;53.130;8.244;2023-10-09T20:47:58;2.17;;;1.60;;
10166;SDS011;62970;53.130;8.244;2023-10-09T20:50:30;2.23;;;1.50;;
10166;SDS011;62970;53.130;8.244;2023-10-09T20:53:03;2.90;;;1.27;;
10166;SDS011;62970;53.130;8.244;2023-10-09T20:55:36;2.53;;;1.60;;
10166;SDS011;62970;53.130;8.244;2023-10-09T20:58:06;2.83;;;1.40;;
10166;SDS011;62970;53.130;8.244;2023-10-09T21:00:36;1.40;;;1.20;;
10166;SDS011;62970;53.130;8.244;2023-10-09T21:03:05;1.87;;;1.30;;
10166;SDS011;62970;53.130;8.244;2023-10-09T21:05:35;1.80;;;1.13;;
10166;SDS011;62970;53.130;8.244;2023-10-09T21:08:04;3.37;;;1.40;;
10166;SDS011;62970;53.130;8.244;2023-10-09T21:10:34;1.30;;;1.20;;
10166;SDS011;62970;53.130;8.244;2023-10-09T21:13:09;1.90;;;1.10;;
10166;SDS011;62970;53.130;8.244;2023-10-09T21:15:40;2.37;;;1.40;;
10166;SDS011;62970;53.130;8.244;2023-10-09T21:18:10;2.80;;;1.13;;
10166;SDS011;62970;53.130;8.244;2023-10-09T21:20:42;3.40;;;1.20;;
10166;SDS011;62970;53.130;8.244;2023-10-09T21:23:11;1.80;;;1.20;;
10166;SDS011;62970;53.130;8.244;2023-10-09T21:25:43;1.50;;;1.10;;
10166;SDS011;62970;53.130;8.244;2023-10-09T21:28:12;3.17;;;1.00;;
10166;SDS011;62970;53.130;8.244;2023-10-09T21:30:42;5.50;;;1.30;;
10166;SDS011;62970;53.130;8.244;2023-10-09T21:33:11;3.13;;;1.27;;
10166;SDS011;62970;53.130;8.244;2023-10-09T21:35:41;2.83;;;1.10;;
10166;SDS011;62970;53.130;8.244;2023-10-09T21:38:10;2.23;;;1.03;;
10166;SDS011;62970;53.130;8.244;2023-10-09T21:40:39;1.80;;;1.03;;
10166;SDS011;62970;53.130;8.244;2023-10-09T21:43:11;1.23;;;1.10;;
10166;SDS011;62970;53.130;8.244;2023-10-09T21:45:40;1.47;;;1.00;;
10166;SDS011;62970;53.130;8.244;2023-10-09T21:48:11;1.70;;;1.20;;
10166;SDS011;62970;53.130;8.244;2023-10-09T21:50:41;2.33;;;1.40;;
10166;SDS011;62970;53.130;8.244;2023-10-09T21:53:10;1.10;;;1.00;;
10166;SDS011;62970;53.130;8.244;2023-10-09T21:55:42;2.50;;;1.37;;
10166;SDS011;62970;53.130;8.244;2023-10-09T21:58:14;1.73;;;1.17;;
10166;SDS011;62970;53.130;8.244;2023-10-09T22:00:43;2.10;;;1.40;;
10166;SDS011;62970;53.130;8.244;2023-10-09T22:03:12;2.27;;;1.30;;
10166;SDS011;62970;53.130;8.244;2023-10-09T22:05:43;2.53;;;1.20;;
10166;SDS011;62970;53.130;8.244;2023-10-09T22:08:13;1.73;;;1.23;;
10166;SDS011;62970;53.130;8.244;2023-10-09T22:10:43;1.40;;;1.00;;
10166;SDS011;62970;53.130;8.244;2023-10-09T22:13:16;3.87;;;1.20;;
10166;SDS011;62970;53.130;8.244;2023-10-09T22:15:46;2.10;;;1.30;;
10166;SDS011;62970;53.130;8.244;2023-10-09T22:18:33;3.40;;;1.30;;
10166;SDS011;62970;53.130;8.244;2023-10-09T22:21:05;2.70;;;1.23;;
10166;SDS011;62970;53.130;8.244;2023-10-09T22:23:35;3.07;;;1.50;;
10166;SDS011;62970;53.130;8.244;2023-10-09T22:26:11;2.33;;;1.50;;
10166;SDS011;62970;53.130;8.244;2023-10-09T22:28:47;2.47;;;1.40;;
10166;SDS011;62970;53.130;8.244;2023-10-09T22:31:17;3.07;;;1.80;;
10166;SDS011;62970;53.130;8.244;2023-10-09T22:33:47;3.27;;;1.63;;
10166;SDS011;62970;53.130;8.244;2023-10-09T22:36:21;4.27;;;1.73;;
10166;SDS011;62970;53.130;8.244;2023-10-09T22:38:52;3.30;;;1.87;;
10166;SDS011;62970;53.130;8.244;2023-10-09T22:41:24;4.67;;;2.10;;
10166;SDS011;62970;53.130;8.244;2023-10-09T22:43:57;5.17;;;2.10;;
10166;SDS011;62970;53.130;8.244;2023-10-09T22:46:35;2.20;;;1.80;;
10166;SDS011;62970;53.130;8.244;2023-10-09T22:49:04;3.80;;;1.87;;
10166;SDS011;62970;53.130;8.244;2023-10-09T22:51:38;3.63;;;1.67;;
10166;SDS011;62970;53.130;8.244;2023-10-09T22:54:15;4.97;;;2.13;;
10166;SDS011;62970;53.130;8.244;2023-10-09T22:56:48;4.20;;;2.43;;
10166;SDS011;62970;53.130;8.244;2023-10-09T22:59:23;3.00;;;1.90;;
10166;SDS011;62970;53.130;8.244;2023-10-09T23:01:53;2.77;;;2.10;;
10166;SDS011;62970;53.130;8.244;2023-10-09T23:04:24;2.73;;;2.20;;
10166;SDS011;62970;53.130;8.244;2023-10-09T23:07:06;3.80;;;2.40;;
10166;SDS011;62970;53.130;8.244;2023-10-09T23:09:42;3.80;;;2.20;;
10166;SDS011;62970;53.130;8.244;2023-10-09T23:12:19;4.47;;;2.00;;
10166;SDS011;62970;53.130;8.244;2023-10-09T23:15:00;3.93;;;1.80;;
10166;SDS011;62970;53.130;8.244;2023-10-09T23:17:34;3.77;;;1.90;;
10166;SDS011;62970;53.130;8.244;2023-10-09T23:20:13;2.57;;;1.80;;
10166;SDS011;62970;53.130;8.244;2023-10-09T23:22:47;2.87;;;1.70;;
10166;SDS011;62970;53.130;8.244;2023-10-09T23:25:14;2.57;;;1.90;;
10166;SDS011;62970;53.130;8.244;2023-10-09T23:27:52;3.43;;;1.70;;
10166;SDS011;62970;53.130;8.244;2023-10-09T23:30:43;5.43;;;1.90;;
10166;SDS011;62970;53.130;8.244;2023-10-09T23:33:17;3.93;;;1.77;;
10166;SDS011;62970;53.130;8.244;2023-10-09T23:35:48;4.30;;;1.80;;
10166;SDS011;62970;53.130;8.244;2023-10-09T23:38:29;2.90;;;1.67;;
10166;SDS011;62970;53.130;8.244;2023-10-09T23:40:59;3.63;;;1.80;;
10166;SDS011;62970;53.130;8.244;2023-10-09T23:43:35;4.67;;;1.87;;
10166;SDS011;62970;53.130;8.244;2023-10-09T23:46:12;3.40;;;2.13;;
10166;SDS011;62970;53.130;8.244;2023-10-09T23:48:48;2.53;;;1.60;;
10166;SDS011;62970;53.130;8.244;2023-10-09T23:51:19;3.77;;;1.60;;
10166;SDS011;62970;53.130;8.244;2023-10-09T23:53:52;2.77;;;1.90;;
10166;SDS011;62970;53.130;8.244;2023-10-09T23:56:26;6.77;;;2.40;;
10166;SDS011;62970;53.130;8.244;2023-10-09T23:59:20;5.00;;;2.20;;
